Flag for Portugal

Past Weather in 37°07'00.0"N, 7°39'00.0"W, Portugal — Yesterday and Last 2 Weeks

Currently: 57 °F. Sunny. (Weather station: Faro / Aeroporto, Portugal). See more current weather

Past Weather in 37°07'00.0"N, 7°39'00.0"W — Graph

°F

37°07'00.0"N, 7°39'00.0"W Temperature Yesterday

Maximum temperature yesterday: 63 °F (at 3:00 am)
Minimum temperature yesterday: 52 °F (at 10:30 pm)
Average temperature yesterday: 57 °F

High & Low Weather Summary for the Past Weeks

 TemperatureHumidityPressure
High72 °F (Feb 19, 2:30 pm)100% (Feb 12, 5:30 pm)30.54 "Hg (Feb 12, 5:30 pm)
Low48 °F (Feb 27, 4:30 am)36% (Feb 27, 11:00 am)29.92 "Hg (Feb 15, 1:30 am)
Average60 °F76%30.22 "Hg
* Reported Feb 12 12:00 pm — Feb 27 12:00 pm, 37°07'00.0"N, 7°39'00.0"W. Weather by CustomWeather, © 2024

Note: Actual official high and low records may vary slightly from our data, if they occured in-between our weather recording intervals... More about our weather records

37°07'00.0"N, 7°39'00.0"W Weather History for the Previous 24 Hours

Scroll right to see more
 ConditionsComfort  
Time TempWeatherWind HumidityBarometerVisibility
12:00 pm
Tue, Feb 27
57 °FSunny.18 mph39%30.21 "Hg10 mi
11:30 am59 °FPassing clouds.20 mph36%30.21 "HgN/A
11:00 am57 °FPassing clouds.21 mph36%30.21 "HgN/A
10:30 am55 °FSunny.22 mph41%30.21 "Hg10 mi
10:00 am54 °FSunny.24 mph44%30.18 "Hg10 mi
9:30 am54 °FSunny.22 mph47%30.18 "Hg10 mi
9:00 am52 °FSunny.21 mph50%30.18 "Hg10 mi
8:30 am50 °FSunny.18 mph58%30.18 "Hg10 mi
8:00 am48 °FSunny.20 mph58%30.18 "Hg10 mi
7:30 am48 °FSunny.18 mph62%30.15 "Hg10 mi
7:00 am48 °FPassing clouds.16 mph62%30.15 "HgN/A
6:30 am48 °FClear.20 mph62%30.15 "Hg10 mi
6:00 am48 °FClear.13 mph62%30.15 "Hg10 mi
5:30 am48 °FClear.15 mph66%30.12 "Hg10 mi
5:00 am48 °FClear.14 mph66%30.12 "Hg10 mi
4:30 am48 °FClear.13 mph66%30.12 "Hg10 mi
4:00 am50 °FClear.14 mph67%30.09 "Hg10 mi
3:30 am50 °FClear.16 mph67%30.09 "Hg10 mi
3:00 am50 °FClear.10 mph67%30.09 "Hg10 mi
2:30 am50 °FPassing clouds.7 mph67%30.09 "HgN/A
1:30 am52 °FPassing clouds.5 mph62%30.12 "HgN/A
1:00 am52 °FClear.13 mph67%30.12 "Hg10 mi
11:30 pm
Mon, Feb 26
52 °FPassing clouds.7 mph67%30.12 "HgN/A
11:00 pm52 °FClear.8 mph67%30.12 "Hg10 mi
10:30 pm52 °FPassing clouds.9 mph67%30.12 "HgN/A
10:00 pm54 °FPassing clouds.9 mph63%30.09 "HgN/A
9:30 pm54 °FPassing clouds.9 mph63%30.09 "HgN/A
9:00 pm54 °FPassing clouds.8 mph63%30.07 "HgN/A
8:30 pm54 °FPassing clouds.15 mph63%30.07 "HgN/A
8:00 pm55 °FPassing clouds.20 mph59%30.07 "HgN/A
7:30 pm55 °FPassing clouds.17 mph59%30.04 "HgN/A
7:00 pm55 °FPassing clouds.16 mph59%30.04 "HgN/A
6:30 pm57 °FPassing clouds.18 mph59%30.04 "HgN/A
6:00 pm57 °FPassing clouds.14 mph59%30.01 "HgN/A
5:30 pm57 °FPassing clouds.17 mph55%30.01 "HgN/A
5:00 pm59 °FPassing clouds.21 mph48%30.01 "HgN/A
4:30 pm61 °FPassing clouds.23 mph45%30.01 "HgN/A
4:00 pm61 °FPassing clouds.21 mph48%30.01 "HgN/A
3:30 pm63 °FPassing clouds.24 mph45%29.98 "HgN/A
3:00 pm61 °FPassing clouds.21 mph48%29.98 "HgN/A
2:30 pm61 °FPassing clouds.22 mph45%29.98 "HgN/A
2:00 pm61 °FPassing clouds.25 mph48%30.01 "HgN/A
1:30 pm61 °FPassing clouds.21 mph55%29.98 "HgN/A
1:00 pm61 °FPassing clouds.22 mph52%30.01 "HgN/A
Weather by CustomWeather, © 2024

See weather overview